Kezdőlap
METAR-TAF:

METAR-TAF

Repülőterek :

Tucson, Arizona, Amerikai Egyesült Államok

földrajzi szélesség: 32-08-32N, földrajzi hosszúság: 111-10-28W, magasság: 737 m

Jelenlegi meteorológiai megfigyelések

A jelentés 6 órával és 11 perccel ezelõtt készült, 02:50 UTC
Dél-délnyugati szél 5 kt
Hőmérséklet 23°C
Páratartalom 15%
Légköri nyomás 1013 hPa
Látótávolság: 16.1 km
Derült ég

METAR: KRYN 250250Z 21005KT 10SM CLR 23/M05 A2991

Idő: 02:01 (09:01 UTC)


TAF: hiányzik

Meteorológiai megfigyelések és előrejelzések több, mint 4000 repülőtéren (METAR és TAF jelentéseket).

A térképen piros és sárga pontok jelzik az elérhető meteorológiai állomásokat.

Mozgassa az egeret a pont fölött, hogy megjelenjen az állomás neve.

Azután kattintson az időjárási megfigyelések és előrejelzések megtekintéséhez.

A térkép megváltoztatása: kattintson a fekete keresztel jelölt zöld gombra ráközelítéshez, a vonallal jelölt zöld gombra távolításhoz, vagy a zöld nyilakra a szomszédos térképek eléréséhez.


METAR-TAF: